createdAt,value
2023-02-15T00:02:29.292Z,102885.75
2023-02-15T00:07:32.103Z,102884.22
2023-02-15T00:12:35.130Z,102875.09
2023-02-15T00:17:39.303Z,102866.16
2023-02-15T00:22:42.191Z,102866.78
2023-02-15T00:27:45.163Z,102861.34
2023-02-15T00:32:50.765Z,102854.09
2023-02-15T00:38:09.936Z,102852.81
2023-02-15T00:43:12.781Z,102847.16
2023-02-15T00:48:20.213Z,102855.75
2023-02-15T00:53:24.105Z,102854.94
2023-02-15T00:58:27.128Z,102857.00
2023-02-15T01:03:47.513Z,102855.84
2023-02-15T01:08:50.607Z,102851.38
2023-02-15T01:13:55.880Z,102850.56
2023-02-15T01:19:00.094Z,102844.47
2023-02-15T01:24:02.958Z,102840.69
2023-02-15T01:29:21.938Z,102833.88
2023-02-15T01:34:26.196Z,102828.50
2023-02-15T01:39:29.188Z,102818.38
2023-02-15T01:44:50.542Z,102815.31
2023-02-15T01:50:02.687Z,102800.38
2023-02-15T01:55:07.950Z,102813.63
2023-02-15T02:00:12.037Z,102817.16
2023-02-15T02:05:19.296Z,102807.00
2023-02-15T02:10:24.479Z,102802.81
2023-02-15T02:15:35.032Z,102811.34
2023-02-15T02:21:09.937Z,102803.69
2023-02-15T02:26:40.210Z,102799.16
2023-02-15T02:31:55.490Z,102790.16
2023-02-15T02:37:04.495Z,102779.75
2023-02-15T02:42:11.806Z,102777.78
2023-02-15T02:47:19.362Z,102771.59
2023-02-15T02:52:41.108Z,102753.38
2023-02-15T02:57:48.810Z,102748.84
2023-02-15T03:03:15.962Z,102743.56
2023-02-15T03:08:22.901Z,102736.41
2023-02-15T03:13:26.430Z,102732.88
2023-02-15T03:18:32.947Z,102730.25
2023-02-15T03:23:38.853Z,102731.94
2023-02-15T03:28:57.229Z,102735.38
2023-02-15T03:34:01.667Z,102731.94
2023-02-15T03:39:12.074Z,102725.03
2023-02-15T03:44:20.490Z,102719.91
2023-02-15T03:49:26.334Z,102721.53
2023-02-15T03:54:44.822Z,102710.50
2023-02-15T04:00:05.222Z,102708.59
2023-02-15T04:05:14.452Z,102696.38
2023-02-15T04:10:36.296Z,102687.59
2023-02-15T04:15:56.962Z,102683.06
2023-02-15T04:21:17.308Z,102675.41
2023-02-15T04:26:21.657Z,102679.69
2023-02-15T04:31:24.826Z,102676.28
2023-02-15T04:36:27.753Z,102670.41
2023-02-15T04:41:31.980Z,102662.84
2023-02-15T04:46:35.968Z,102660.34
2023-02-15T04:51:38.978Z,102659.78
2023-02-15T04:56:44.130Z,102648.16
2023-02-15T05:01:47.017Z,102658.47
2023-02-15T05:06:49.902Z,102668.59
2023-02-15T05:11:54.195Z,102657.16
2023-02-15T05:16:57.094Z,102653.38
2023-02-15T05:22:00.357Z,102649.31
2023-02-15T05:27:21.929Z,102642.78
2023-02-15T05:32:26.168Z,102632.53
2023-02-15T05:37:30.607Z,102626.97
2023-02-15T05:42:34.961Z,102624.63
2023-02-15T05:47:37.824Z,102627.19
2023-02-15T05:52:40.669Z,102628.66
2023-02-15T05:57:44.972Z,102621.09
2023-02-15T06:02:48.032Z,102615.34
2023-02-15T06:07:50.941Z,102595.72
2023-02-15T06:12:55.185Z,102601.03
2023-02-15T06:17:57.998Z,102589.09
2023-02-15T06:23:00.952Z,102591.78
2023-02-15T06:28:07.738Z,102582.66
2023-02-15T06:33:10.539Z,102593.16
2023-02-15T06:38:13.365Z,102596.72
2023-02-15T06:43:17.575Z,102595.00
2023-02-15T06:48:20.428Z,102593.19
2023-02-15T06:53:43.829Z,102597.38
2023-02-15T06:58:50.380Z,102588.75
2023-02-15T07:03:55.396Z,102580.19
2023-02-15T07:08:58.311Z,102571.38
2023-02-15T07:14:02.651Z,102582.31
2023-02-15T07:19:20.722Z,102576.50
2023-02-15T07:24:23.703Z,102571.66
2023-02-15T07:29:27.988Z,102564.28
2023-02-15T07:34:30.811Z,102562.88
2023-02-15T07:39:33.912Z,102551.97
2023-02-15T07:44:56.123Z,102542.81
2023-02-15T07:49:59.050Z,102546.41
2023-02-15T07:55:02.077Z,102540.53
2023-02-15T08:00:07.712Z,102525.44
2023-02-15T08:05:15.368Z,102527.63
2023-02-15T08:10:47.024Z,102521.03
2023-02-15T08:15:52.006Z,102507.84
2023-02-15T08:20:55.133Z,102500.50
2023-02-15T08:26:01.960Z,102501.97
2023-02-15T08:31:10.728Z,102502.44
2023-02-15T08:36:15.706Z,102501.91
2023-02-15T08:41:20.020Z,102497.72
2023-02-15T08:46:25.213Z,102497.28
2023-02-15T08:51:29.796Z,102494.41
2023-02-15T08:56:36.580Z,102494.00
2023-02-15T09:01:46.767Z,102496.06
2023-02-15T09:06:50.750Z,102494.84
2023-02-15T09:11:58.879Z,102499.63
2023-02-15T09:17:03.680Z,102486.91
2023-02-15T09:22:06.628Z,102490.88
2023-02-15T09:27:22.815Z,102493.88
2023-02-15T09:32:27.183Z,102493.09
2023-02-15T09:37:30.082Z,102503.63
2023-02-15T09:42:43.207Z,102507.72
2023-02-15T09:48:16.646Z,102520.97
2023-02-15T09:53:31.703Z,102505.84
2023-02-15T09:58:41.258Z,102508.81
2023-02-15T10:03:59.344Z,102516.41
2023-02-15T10:09:13.299Z,102521.28
2023-02-15T10:14:42.819Z,102513.63
2023-02-15T10:19:53.562Z,102512.41
2023-02-15T10:25:13.055Z,102520.81
2023-02-15T10:30:17.055Z,102494.25
2023-02-15T10:35:47.785Z,102488.03
2023-02-15T10:41:00.903Z,102477.81
2023-02-15T10:46:11.428Z,102470.97
2023-02-15T10:51:18.612Z,102463.22
2023-02-15T10:56:24.217Z,102468.53
2023-02-15T11:01:32.900Z,102459.06
2023-02-15T11:06:38.738Z,102448.75
2023-02-15T11:11:44.923Z,102441.84
2023-02-15T11:16:54.140Z,102429.69
2023-02-15T11:22:02.153Z,102423.66
2023-02-15T11:27:06.959Z,102415.84
2023-02-15T11:32:16.737Z,102416.72
2023-02-15T11:37:26.536Z,102420.19
2023-02-15T11:42:30.527Z,102414.16
2023-02-15T11:47:33.569Z,102414.16
2023-02-15T11:52:39.208Z,102417.72
2023-02-15T11:57:45.087Z,102406.56
2023-02-15T12:02:52.813Z,102398.66
2023-02-15T12:08:04.856Z,102391.66
2023-02-15T12:13:12.855Z,102381.28
2023-02-15T12:18:36.960Z,102377.03
2023-02-15T12:23:48.069Z,102355.34
2023-02-15T12:28:55.712Z,102360.63
2023-02-15T12:33:59.909Z,102372.88
2023-02-15T12:39:21.823Z,102387.66
2023-02-15T12:44:27.572Z,102370.25
2023-02-15T12:49:31.564Z,102365.03
2023-02-15T12:54:39.599Z,102383.31
2023-02-15T12:59:50.430Z,102375.50
2023-02-15T13:04:53.653Z,102379.84
2023-02-15T13:09:59.478Z,102363.31
2023-02-15T13:15:03.418Z,102358.94
2023-02-15T13:20:19.019Z,102359.81
2023-02-15T13:25:24.739Z,102337.16
2023-02-15T13:30:32.202Z,102329.34
2023-02-15T13:35:42.945Z,102326.72
2023-02-15T13:40:51.301Z,102324.97
2023-02-15T13:46:03.632Z,102316.25
2023-02-15T13:51:13.748Z,102317.13
2023-02-15T13:56:22.871Z,102316.25
2023-02-15T14:01:32.032Z,102296.22
2023-02-15T14:07:00.772Z,102299.69
2023-02-15T14:12:22.580Z,102301.38
2023-02-15T14:17:42.355Z,102291.75
2023-02-15T14:22:48.971Z,102301.34
2023-02-15T14:27:59.751Z,102299.59
2023-02-15T14:33:08.184Z,102308.38
2023-02-15T14:38:17.108Z,102297.91
2023-02-15T14:43:29.926Z,102304.03
2023-02-15T14:48:36.049Z,102297.06
2023-02-15T14:53:44.965Z,102289.25
2023-02-15T14:59:00.772Z,102281.44
2023-02-15T15:04:06.866Z,102280.56
2023-02-15T15:09:14.272Z,102266.63
2023-02-15T15:14:41.223Z,102261.41
2023-02-15T15:20:14.374Z,102250.94
2023-02-15T15:25:45.689Z,102272.75
2023-02-15T15:30:53.509Z,102270.97
2023-02-15T15:36:16.641Z,102253.56
2023-02-15T15:41:21.012Z,102253.56
2023-02-15T15:46:38.417Z,102251.78
2023-02-15T15:51:43.509Z,102252.66
2023-02-15T15:56:50.806Z,102240.41
2023-02-15T16:01:55.199Z,102244.75
2023-02-15T16:06:58.805Z,102240.38
2023-02-15T16:12:03.010Z,102239.47
2023-02-15T16:17:15.188Z,102243.81
2023-02-15T16:22:21.443Z,102239.44
2023-02-15T16:27:38.655Z,102236.78
2023-02-15T16:39:11.836Z,102243.59
2023-02-15T16:44:18.414Z,102252.22
2023-02-15T16:49:23.468Z,102252.16
2023-02-15T16:54:29.212Z,102252.16
2023-02-15T16:59:48.593Z,102270.34
2023-02-15T17:05:04.862Z,102264.19
2023-02-15T17:10:29.264Z,102271.88
2023-02-15T17:15:34.644Z,102279.56
2023-02-15T17:20:44.554Z,102268.25
2023-02-15T17:25:49.507Z,102281.13
2023-02-15T17:30:53.431Z,102271.44
2023-02-15T17:36:09.677Z,102272.13
2023-02-15T17:41:15.186Z,102274.69
2023-02-15T17:46:19.671Z,102280.69
2023-02-15T17:51:23.405Z,102279.81
2023-02-15T17:56:27.684Z,102286.75
2023-02-15T18:01:54.651Z,102284.06
2023-02-15T18:07:15.326Z,102285.78
2023-02-15T18:12:23.074Z,102289.19
2023-02-15T18:17:29.941Z,102285.69
2023-02-15T18:22:33.102Z,102290.88
2023-02-15T18:27:37.430Z,102290.91
2023-02-15T18:32:41.343Z,102271.81
2023-02-15T18:37:44.344Z,102276.16
2023-02-15T18:42:49.806Z,102279.56
2023-02-15T18:47:53.128Z,102285.66
2023-02-15T18:52:56.009Z,102274.34
2023-02-15T18:58:01.116Z,102269.97
2023-02-15T19:03:04.768Z,102259.56
2023-02-15T19:08:16.805Z,102276.94
2023-02-15T19:13:21.046Z,102276.97
2023-02-15T19:18:23.868Z,102274.59
2023-02-15T19:23:26.967Z,102268.56
2023-02-15T19:28:33.584Z,102278.19
2023-02-15T19:33:36.826Z,102261.78
2023-02-15T19:38:41.027Z,102255.78
2023-02-15T19:43:53.085Z,102256.53
2023-02-15T19:48:56.096Z,102243.50
2023-02-15T19:53:58.982Z,102235.63
2023-02-15T19:59:03.172Z,102248.63
2023-02-15T20:04:06.192Z,102233.88
2023-02-15T20:09:10.162Z,102239.88
2023-02-15T20:14:15.309Z,102245.88
2023-02-15T20:19:18.264Z,102236.31
2023-02-15T20:24:22.524Z,102239.69
2023-02-15T20:29:26.800Z,102241.38
2023-02-15T20:34:42.268Z,102249.13
2023-02-15T20:39:45.048Z,102253.44
2023-02-15T20:44:50.436Z,102244.69
2023-02-15T20:49:54.232Z,102241.19
2023-02-15T20:54:57.103Z,102245.53
2023-02-15T21:00:23.936Z,102246.41
2023-02-15T21:05:28.149Z,102243.78
2023-02-15T21:10:33.229Z,102242.16
2023-02-15T21:15:39.830Z,102249.03
2023-02-15T21:20:45.821Z,102253.31
2023-02-15T21:25:57.310Z,102252.44
2023-02-15T21:31:01.654Z,102244.63
2023-02-15T21:36:05.250Z,102244.50
2023-02-15T21:41:22.034Z,102234.00
2023-02-15T21:46:45.603Z,102253.09
2023-02-15T21:52:09.656Z,102260.88
2023-02-15T21:57:14.973Z,102250.34
2023-02-15T22:02:30.512Z,102247.59
2023-02-15T22:07:33.380Z,102245.69
2023-02-15T22:12:36.424Z,102251.56
2023-02-15T22:17:40.685Z,102248.06
2023-02-15T22:22:43.610Z,102255.75
2023-02-15T22:27:47.859Z,102247.84
2023-02-15T22:32:54.133Z,102245.19
2023-02-15T22:37:58.294Z,102251.91
2023-02-15T22:43:03.036Z,102260.56
2023-02-15T22:48:07.433Z,102259.69
2023-02-15T22:53:10.600Z,102265.75
2023-02-15T22:58:18.124Z,102254.47
2023-02-15T23:03:24.095Z,102260.50
2023-02-15T23:08:26.884Z,102250.13
2023-02-15T23:13:33.053Z,102248.44
2023-02-15T23:18:39.237Z,102245.78
2023-02-15T23:23:43.534Z,102238.81
2023-02-15T23:28:46.877Z,102245.69
2023-02-15T23:33:52.536Z,102243.78
2023-02-15T23:38:56.633Z,102241.13
2023-02-15T23:44:12.290Z,102235.75
2023-02-15T23:49:19.453Z,102247.94
2023-02-15T23:54:25.515Z,102236.75
2023-02-15T23:59:30.169Z,102232.41
